Time;durP1;ratioP1;P1;durP2;ratioP2;P2;SDS_P1;SDS_P2;PMS_P1;PMS_P2;Temp;Humidity;BMP_temperature;BMP_pressure;BME280_temperature;BME280_humidity;BME280_pressure;Samples;Min_cycle;Max_cycle;Signal;HPM_P1;HPM_P2
2022/07/14 00:01:39;;;;;;;19.35;3.78;;;14.60;99.90;;;;;;5041450;28;20044;-76
2022/07/14 00:04:06;;;;;;;15.20;3.58;;;14.50;99.90;;;;;;5070964;28;20036;-77
2022/07/14 00:06:33;;;;;;;15.15;3.40;;;14.50;99.90;;;;;;5078234;28;21562;-76
2022/07/14 00:08:59;;;;;;;20.58;3.65;;;14.40;99.90;;;;;;5066019;28;20044;-78
2022/07/14 00:11:26;;;;;;;20.48;3.45;;;14.50;99.90;;;;;;5070036;28;20136;-76
2022/07/14 00:13:51;;;;;;;17.73;3.75;;;14.40;99.90;;;;;;5069139;28;20172;-76
2022/07/14 00:16:20;;;;;;;15.60;3.20;;;14.40;99.90;;;;;;5057813;28;20052;-77
2022/07/14 00:18:46;;;;;;;10.48;3.05;;;14.30;99.90;;;;;;5048935;28;20032;-75
2022/07/14 00:21:13;;;;;;;11.93;2.90;;;14.30;99.90;;;;;;5045958;28;20083;-76
2022/07/14 00:23:39;;;;;;;14.57;3.40;;;14.30;99.90;;;;;;5035778;28;20048;-77
2022/07/14 00:26:05;;;;;;;20.55;3.90;;;14.20;99.90;;;;;;5069053;28;20048;-77
2022/07/14 00:28:32;;;;;;;13.25;2.63;;;14.20;99.90;;;;;;5039737;28;20067;-77
2022/07/14 00:31:03;;;;;;;13.80;3.47;;;14.20;99.90;;;;;;5039516;28;20045;-76
2022/07/14 00:33:30;;;;;;;13.18;3.20;;;14.40;99.90;;;;;;5073487;28;20155;-77
2022/07/14 00:35:56;;;;;;;14.07;3.17;;;14.20;99.90;;;;;;5041536;28;20075;-77
2022/07/14 00:38:22;;;;;;;11.93;3.00;;;14.20;99.90;;;;;;5044746;28;20509;-77
2022/07/14 00:40:48;;;;;;;17.20;3.10;;;14.20;99.90;;;;;;5042961;28;20135;-78
2022/07/14 00:43:14;;;;;;;19.85;3.33;;;14.20;99.90;;;;;;5042722;28;20517;-77
2022/07/14 00:45:39;;;;;;;15.23;3.65;;;14.20;99.90;;;;;;5057194;28;20045;-76
2022/07/14 00:48:06;;;;;;;15.18;3.40;;;14.10;99.90;;;;;;5044676;28;20040;-77
2022/07/14 00:50:32;;;;;;;11.38;3.30;;;14.20;99.90;;;;;;5025869;28;20175;-76
2022/07/14 00:52:58;;;;;;;13.02;2.95;;;14.20;99.90;;;;;;5037995;28;20051;-77
2022/07/14 00:55:24;;;;;;;17.65;3.22;;;14.10;99.90;;;;;;5040365;28;20040;-77
2022/07/14 00:57:50;;;;;;;11.45;2.95;;;14.10;99.90;;;;;;5039316;28;20041;-76
2022/07/14 01:00:17;;;;;;;19.08;3.45;;;14.10;99.90;;;;;;5069707;28;20037;-77
2022/07/14 01:02:44;;;;;;;11.50;2.83;;;14.10;99.90;;;;;;5037277;28;21668;-77
2022/07/14 01:05:10;;;;;;;17.10;3.35;;;14.10;99.90;;;;;;5072323;28;20491;-77
2022/07/14 01:07:36;;;;;;;17.75;3.33;;;14.20;99.90;;;;;;5053438;28;20144;-76
2022/07/14 01:10:03;;;;;;;15.52;3.20;;;14.20;99.90;;;;;;5021276;28;20040;-76
2022/07/14 01:12:29;;;;;;;14.32;2.97;;;14.10;99.90;;;;;;5023765;28;20024;-77
2022/07/14 01:14:55;;;;;;;19.13;3.65;;;14.20;99.90;;;;;;5024536;28;20107;-76
2022/07/14 01:17:21;;;;;;;14.75;3.33;;;14.20;99.90;;;;;;5055993;28;20499;-78
2022/07/14 01:19:49;;;;;;;14.63;3.28;;;14.20;99.90;;;;;;5058682;28;20041;-78
2022/07/14 01:22:15;;;;;;;12.93;3.20;;;14.10;99.90;;;;;;5024251;28;20048;-77
2022/07/14 01:24:41;;;;;;;11.15;3.33;;;14.20;99.90;;;;;;5022467;28;20040;-77
2022/07/14 01:27:07;;;;;;;17.25;3.55;;;14.10;99.90;;;;;;5055097;28;20139;-78
2022/07/14 01:29:33;;;;;;;14.13;3.20;;;14.20;99.90;;;;;;5041646;28;20074;-77
2022/07/14 01:31:58;;;;;;;17.35;3.08;;;14.10;99.90;;;;;;5022362;28;20071;-78
2022/07/14 01:34:24;;;;;;;17.40;3.25;;;14.10;99.90;;;;;;5048130;28;20071;-77
2022/07/14 01:36:52;;;;;;;15.70;3.05;;;14.10;99.90;;;;;;5056773;28;20149;-77
2022/07/14 01:39:18;;;;;;;17.40;3.10;;;14.10;99.90;;;;;;5039880;28;20032;-77
2022/07/14 01:41:45;;;;;;;13.50;3.85;;;14.10;99.90;;;;;;5055780;28;20044;-76
2022/07/14 01:44:11;;;;;;;21.63;3.15;;;14.00;99.90;;;;;;5038555;28;20036;-76
2022/07/14 01:46:40;;;;;;;13.50;3.10;;;14.00;99.90;;;;;;5057913;28;20586;-75
2022/07/14 01:49:06;;;;;;;11.52;3.03;;;14.00;99.90;;;;;;5020758;28;20044;-77
2022/07/14 01:51:32;;;;;;;15.43;3.05;;;13.90;99.90;;;;;;5029940;28;20376;-79
2022/07/14 01:53:58;;;;;;;15.73;2.88;;;13.90;99.90;;;;;;5077354;28;20058;-76
2022/07/14 01:56:23;;;;;;;13.82;3.22;;;13.80;99.90;;;;;;5039469;28;20033;-76
2022/07/14 01:58:49;;;;;;;12.02;2.78;;;13.80;99.90;;;;;;5039724;28;20037;-78
2022/07/14 02:04:04;;;;;;;10.52;2.90;;;13.80;99.90;;;;;;5040694;28;20056;-76
2022/07/14 02:06:30;;;;;;;11.85;2.50;;;13.60;99.90;;;;;;5042164;28;20044;-76
2022/07/14 02:08:58;;;;;;;13.50;3.25;;;13.60;99.90;;;;;;5025863;28;20040;-78
2022/07/14 02:14:08;;;;;;;11.75;3.03;;;13.60;99.90;;;;;;5051757;28;20033;-78
2022/07/14 02:16:34;;;;;;;22.52;3.55;;;13.50;99.90;;;;;;5075262;28;20463;-78
2022/07/14 02:19:00;;;;;;;12.82;3.00;;;13.40;99.90;;;;;;5053269;28;20044;-78
2022/07/14 02:21:26;;;;;;;8.48;3.13;;;13.50;99.90;;;;;;5039694;28;20056;-79
2022/07/14 02:23:52;;;;;;;12.60;2.97;;;13.40;99.90;;;;;;5044976;28;20105;-78
2022/07/14 02:26:18;;;;;;;13.93;3.25;;;13.30;99.90;;;;;;5021297;28;20044;-77
2022/07/14 02:28:43;;;;;;;13.00;2.83;;;13.30;99.90;;;;;;5022344;28;20078;-76
2022/07/14 02:31:10;;;;;;;16.73;3.20;;;13.30;99.90;;;;;;5038672;28;20122;-77
2022/07/14 02:33:37;;;;;;;14.18;3.65;;;13.20;99.90;;;;;;5076459;28;20523;-78
2022/07/14 02:36:04;;;;;;;11.55;3.13;;;13.30;99.90;;;;;;5070510;28;20124;-78
2022/07/14 02:38:30;;;;;;;19.65;3.42;;;13.30;99.90;;;;;;5058557;28;20045;-76
2022/07/14 02:40:56;;;;;;;14.57;3.20;;;13.20;99.90;;;;;;5042824;28;20040;-77
2022/07/14 02:43:22;;;;;;;16.70;3.28;;;13.20;99.90;;;;;;5072419;28;20094;-77
2022/07/14 02:45:48;;;;;;;10.18;2.47;;;13.20;99.90;;;;;;5075803;28;20467;-76
2022/07/14 02:48:15;;;;;;;13.77;3.05;;;13.30;99.90;;;;;;5043941;28;20425;-77
2022/07/14 02:50:41;;;;;;;11.05;2.90;;;13.20;99.90;;;;;;5043900;28;20040;-77
2022/07/14 02:53:07;;;;;;;11.40;3.03;;;13.30;99.90;;;;;;5075706;28;20058;-77
2022/07/14 02:55:37;;;;;;;12.05;2.70;;;13.30;99.90;;;;;;5059024;28;20048;-77
2022/07/14 02:58:04;;;;;;;14.23;3.10;;;13.30;99.90;;;;;;5028414;28;20039;-78
2022/07/14 03:00:31;;;;;;;12.93;2.72;;;13.30;99.90;;;;;;5056575;28;20218;-77
2022/07/14 03:02:58;;;;;;;13.52;2.72;;;13.30;99.90;;;;;;5043335;28;20127;-77
2022/07/14 03:05:24;;;;;;;9.77;2.75;;;13.30;99.90;;;;;;5037811;28;20051;-77
2022/07/14 03:11:31;;;;;;;9.75;2.75;;;13.30;99.90;;;;;;5072861;28;20040;-75
2022/07/14 03:13:57;;;;;;;8.52;2.65;;;13.20;99.90;;;;;;5061180;28;20052;-76
2022/07/14 03:16:23;;;;;;;12.52;2.75;;;13.10;99.90;;;;;;5025407;28;20033;-78
2022/07/14 03:18:48;;;;;;;12.30;2.70;;;13.10;99.90;;;;;;5044013;28;20119;-77
2022/07/14 03:21:14;;;;;;;10.63;2.60;;;13.20;99.90;;;;;;5047869;28;20663;-77
2022/07/14 03:23:40;;;;;;;12.15;2.88;;;13.10;99.90;;;;;;5044960;28;20055;-77
2022/07/14 03:26:06;;;;;;;13.32;2.53;;;13.10;99.90;;;;;;5044165;28;20040;-77
2022/07/14 03:28:32;;;;;;;10.52;2.78;;;13.10;99.90;;;;;;5075256;28;20045;-77
2022/07/14 03:30:59;;;;;;;12.85;3.00;;;13.00;99.90;;;;;;5054486;28;20114;-78
2022/07/14 03:33:25;;;;;;;10.32;2.70;;;13.00;99.90;;;;;;5057728;28;20037;-78
2022/07/14 03:35:51;;;;;;;13.15;2.83;;;13.00;99.90;;;;;;5077314;28;20040;-77
2022/07/14 03:38:18;;;;;;;13.30;2.55;;;12.90;99.90;;;;;;5046657;28;20044;-77
2022/07/14 03:40:44;;;;;;;8.38;2.42;;;12.90;99.90;;;;;;5064741;28;20039;-77
2022/07/14 03:43:09;;;;;;;13.90;2.78;;;12.90;99.90;;;;;;5045940;28;20040;-77
2022/07/14 03:45:35;;;;;;;9.93;2.67;;;12.90;99.90;;;;;;5047218;28;20041;-77
2022/07/14 03:48:03;;;;;;;15.65;2.53;;;12.90;99.90;;;;;;5061018;28;20044;-77
2022/07/14 03:50:29;;;;;;;8.27;2.22;;;12.90;99.90;;;;;;5080060;28;20029;-78
2022/07/14 03:52:54;;;;;;;13.55;2.85;;;12.90;99.90;;;;;;5047787;28;20040;-78
2022/07/14 03:55:20;;;;;;;8.88;2.65;;;12.80;99.90;;;;;;5060776;28;20052;-77
2022/07/14 03:57:46;;;;;;;14.63;2.42;;;12.80;99.90;;;;;;5078988;28;20102;-76
2022/07/14 04:00:12;;;;;;;11.45;2.85;;;12.80;99.90;;;;;;5045993;28;20482;-77
2022/07/14 04:02:37;;;;;;;9.32;2.20;;;12.80;99.90;;;;;;5080559;28;20048;-77
2022/07/14 04:05:03;;;;;;;14.90;2.92;;;12.80;99.90;;;;;;5059717;28;20344;-77
2022/07/14 04:07:29;;;;;;;11.07;2.63;;;12.80;99.90;;;;;;5048942;28;20062;-77
2022/07/14 04:09:55;;;;;;;15.98;2.88;;;12.80;99.90;;;;;;5050428;28;20041;-78
2022/07/14 04:12:20;;;;;;;9.30;2.60;;;13.00;99.90;;;;;;5047827;28;20051;-77
2022/07/14 04:14:46;;;;;;;8.18;2.75;;;12.90;99.90;;;;;;5081535;28;20037;-77
2022/07/14 04:17:12;;;;;;;10.48;2.85;;;12.90;99.90;;;;;;5038360;28;20048;-77
2022/07/14 04:19:38;;;;;;;13.50;2.90;;;12.90;99.90;;;;;;5062548;28;20043;-76
2022/07/14 04:22:05;;;;;;;13.55;2.90;;;12.90;99.90;;;;;;5085023;28;20115;-76
2022/07/14 04:24:30;;;;;;;15.10;2.95;;;13.10;99.90;;;;;;5086696;28;20386;-77
2022/07/14 04:26:56;;;;;;;11.23;2.75;;;13.10;99.90;;;;;;5054414;28;20131;-77
2022/07/14 04:29:23;;;;;;;13.10;2.88;;;13.20;99.90;;;;;;5059959;28;20351;-76
2022/07/14 04:31:48;;;;;;;12.02;2.88;;;13.10;99.90;;;;;;5032191;28;20044;-77
2022/07/14 04:34:14;;;;;;;10.38;2.97;;;13.20;99.90;;;;;;5088776;28;20044;-77
2022/07/14 04:36:40;;;;;;;12.85;3.15;;;13.40;99.90;;;;;;5079635;28;20044;-77
2022/07/14 04:39:06;;;;;;;8.32;2.75;;;13.40;99.90;;;;;;5096469;28;20345;-74
2022/07/14 04:41:35;;;;;;;8.02;2.55;;;13.50;99.90;;;;;;5064085;28;20479;-77
2022/07/14 04:44:01;;;;;;;10.05;2.20;;;14.50;99.90;;;;;;5028747;28;20059;-78
2022/07/14 04:46:27;;;;;;;8.13;2.40;;;15.40;99.90;;;;;;5077024;28;20040;-78
2022/07/14 04:54:21;;;;;;;12.63;2.40;;;17.00;99.90;;;;;;5060519;28;20040;-78
2022/07/14 04:56:47;;;;;;;9.27;2.40;;;17.50;99.90;;;;;;5031357;28;20538;-78
2022/07/14 04:59:12;;;;;;;9.90;2.25;;;17.90;99.90;;;;;;5081904;28;20394;-78
2022/07/14 05:01:38;;;;;;;10.70;2.70;;;17.90;99.90;;;;;;5079278;28;20456;-78
2022/07/14 05:04:04;;;;;;;11.00;2.55;;;17.10;99.90;;;;;;5030445;28;20102;-78
2022/07/14 05:06:29;;;;;;;6.82;2.30;;;16.60;99.90;;;;;;5044400;28;20050;-77
2022/07/14 05:08:55;;;;;;;9.73;2.40;;;16.10;99.90;;;;;;5046105;28;20131;-78
2022/07/14 05:11:21;;;;;;;13.40;2.58;;;15.80;99.90;;;;;;5043688;28;20051;-77
2022/07/14 05:13:46;;;;;;;12.32;2.15;;;15.50;99.90;;;;;;5047656;28;20115;-77
2022/07/14 05:16:12;;;;;;;9.15;2.30;;;15.50;99.90;;;;;;5047772;28;20122;-78
2022/07/14 05:18:38;;;;;;;7.85;2.42;;;15.30;99.90;;;;;;5026082;28;20059;-77
2022/07/14 05:21:03;;;;;;;10.32;2.53;;;15.10;99.90;;;;;;5048617;28;20513;-77
2022/07/14 05:23:29;;;;;;;9.35;2.40;;;15.10;99.90;;;;;;5044910;28;20036;-78
2022/07/14 05:25:55;;;;;;;8.43;2.28;;;14.90;99.90;;;;;;5055909;28;20041;-78
2022/07/14 05:28:20;;;;;;;12.50;2.80;;;14.80;99.90;;;;;;5075114;28;20056;-78
2022/07/14 05:30:46;;;;;;;9.80;2.38;;;14.90;99.90;;;;;;5046373;28;20040;-78
2022/07/14 05:33:11;;;;;;;12.55;2.97;;;14.90;99.90;;;;;;5043303;28;20048;-79
2022/07/14 05:35:37;;;;;;;14.50;3.08;;;15.00;99.90;;;;;;5041838;28;20112;-75
2022/07/14 05:38:03;;;;;;;14.38;2.78;;;15.00;99.90;;;;;;5080203;28;20050;-76
2022/07/14 05:40:28;;;;;;;13.85;2.30;;;15.10;99.90;;;;;;5028297;28;20090;-76
2022/07/14 05:42:54;;;;;;;10.10;2.17;;;15.10;99.90;;;;;;5044383;28;20087;-78
2022/07/14 05:45:20;;;;;;;13.57;2.35;;;15.10;99.90;;;;;;5043760;28;20044;-75
2022/07/14 05:47:46;;;;;;;11.85;2.70;;;15.40;99.90;;;;;;5046099;28;20040;-74
2022/07/14 05:50:11;;;;;;;10.23;2.20;;;15.60;99.90;;;;;;5028668;28;20136;-73
2022/07/14 05:52:39;;;;;;;11.63;2.45;;;15.50;99.90;;;;;;5045999;28;20521;-74
2022/07/14 05:55:05;;;;;;;10.15;2.50;;;15.70;99.90;;;;;;5056326;28;20052;-75
2022/07/14 05:57:30;;;;;;;15.43;2.45;;;15.90;99.90;;;;;;5050598;28;20488;-74
2022/07/14 05:59:56;;;;;;;9.63;2.13;;;16.10;99.90;;;;;;5053018;28;20051;-73
2022/07/14 06:02:22;;;;;;;18.67;2.85;;;16.20;99.90;;;;;;5044771;28;20044;-74
2022/07/14 06:04:47;;;;;;;10.55;2.63;;;16.50;99.90;;;;;;5087635;28;20028;-75
2022/07/14 06:07:13;;;;;;;9.13;1.70;;;16.60;99.90;;;;;;5068143;28;20041;-74
2022/07/14 06:09:39;;;;;;;9.32;2.05;;;16.70;99.90;;;;;;5076223;28;20029;-75
2022/07/14 06:12:06;;;;;;;7.22;1.70;;;16.80;99.90;;;;;;5045851;28;20040;-76
2022/07/14 06:14:32;;;;;;;11.68;1.85;;;16.80;99.90;;;;;;5068313;28;20851;-75
2022/07/14 06:16:58;;;;;;;10.40;2.00;;;17.00;99.90;;;;;;5029629;28;20131;-75
2022/07/14 06:19:24;;;;;;;8.55;1.67;;;17.10;99.90;;;;;;5030141;28;20111;-75
2022/07/14 06:21:49;;;;;;;8.65;1.58;;;17.10;99.90;;;;;;5057438;28;20059;-75
2022/07/14 06:24:15;;;;;;;10.73;1.75;;;17.10;99.90;;;;;;5040065;28;20055;-75
2022/07/14 06:26:42;;;;;;;10.60;1.33;;;17.30;99.90;;;;;;5040444;28;20036;-75
2022/07/14 06:29:08;;;;;;;7.40;1.27;;;17.30;99.90;;;;;;5073280;28;20577;-78
2022/07/14 06:31:35;;;;;;;8.57;1.63;;;17.20;99.90;;;;;;5037839;28;20049;-76
2022/07/14 06:34:02;;;;;;;10.10;1.20;;;17.30;99.90;;;;;;5018994;28;20532;-76
2022/07/14 06:36:28;;;;;;;6.60;1.17;;;17.40;99.90;;;;;;5007469;28;20053;-76
2022/07/14 06:38:55;;;;;;;9.10;1.20;;;17.40;99.90;;;;;;5029205;28;20047;-76
2022/07/14 06:41:21;;;;;;;10.70;1.70;;;17.50;99.90;;;;;;5024112;28;20055;-76
2022/07/14 06:43:47;;;;;;;6.40;1.40;;;17.50;99.90;;;;;;5057517;28;20044;-75
2022/07/14 06:46:16;;;;;;;12.32;1.67;;;17.50;99.90;;;;;;5055872;28;20060;-76
2022/07/14 06:48:43;;;;;;;8.23;1.70;;;17.50;99.90;;;;;;5026853;28;20127;-75
2022/07/14 06:51:09;;;;;;;7.53;1.20;;;17.70;99.90;;;;;;5042353;28;20049;-77
2022/07/14 06:53:35;;;;;;;8.10;1.40;;;17.70;99.90;;;;;;5041641;28;20057;-76
2022/07/14 06:56:00;;;;;;;8.55;1.30;;;17.80;99.90;;;;;;5033720;28;20045;-76
2022/07/14 06:58:26;;;;;;;7.97;1.27;;;17.80;99.90;;;;;;4997637;28;20124;-75
2022/07/14 07:00:51;;;;;;;16.10;1.65;;;17.70;99.90;;;;;;5021789;28;20132;-76
2022/07/14 07:03:17;;;;;;;6.85;1.40;;;17.70;99.90;;;;;;5033120;28;20048;-75
2022/07/14 07:08:28;;;;;;;5.93;1.10;;;17.90;99.90;;;;;;5017970;28;20120;-75
2022/07/14 07:10:58;;;;;;;7.53;1.30;;;18.00;99.90;;;;;;5021665;28;20061;-76
2022/07/14 07:13:26;;;;;;;8.18;1.38;;;18.10;99.90;;;;;;5035491;28;20041;-76
2022/07/14 07:15:52;;;;;;;4.80;1.00;;;18.20;99.90;;;;;;5012046;28;20052;-75
2022/07/14 07:18:18;;;;;;;17.88;1.40;;;18.30;99.90;;;;;;5032487;28;20044;-75
2022/07/14 07:20:44;;;;;;;7.57;1.00;;;18.40;99.90;;;;;;5026743;28;20468;-75
2022/07/14 07:23:11;;;;;;;6.25;1.15;;;18.30;99.90;;;;;;5036412;28;20056;-77
2022/07/14 07:25:37;;;;;;;6.32;1.02;;;18.50;99.90;;;;;;5038705;28;20088;-77
2022/07/14 07:28:02;;;;;;;6.60;1.25;;;18.70;99.90;;;;;;5044029;28;20052;-77
2022/07/14 07:30:29;;;;;;;3.85;0.90;;;18.70;99.90;;;;;;5039755;28;20220;-77
2022/07/14 07:32:55;;;;;;;5.50;1.23;;;18.70;99.90;;;;;;5038967;28;20052;-78
2022/07/14 07:35:22;;;;;;;4.47;0.80;;;18.70;99.90;;;;;;5088537;28;20032;-76
2022/07/14 07:37:48;;;;;;;5.10;0.98;;;18.80;99.90;;;;;;5033055;28;20047;-75
2022/07/14 07:40:15;;;;;;;7.43;1.17;;;18.80;99.90;;;;;;5037198;28;20105;-76
2022/07/14 07:42:41;;;;;;;6.97;0.90;;;18.90;99.90;;;;;;5021611;28;20059;-77
2022/07/14 07:45:07;;;;;;;4.75;1.00;;;18.90;99.90;;;;;;5050482;28;20044;-79
2022/07/14 07:47:33;;;;;;;4.38;1.10;;;19.00;99.90;;;;;;5010068;28;20139;-76
2022/07/14 07:49:59;;;;;;;7.53;1.20;;;19.10;99.90;;;;;;5048464;28;20064;-78
2022/07/14 07:52:45;;;;;;;5.43;0.80;;;19.20;99.90;;;;;;5051540;28;20067;-77
2022/07/14 07:55:11;;;;;;;4.30;1.00;;;19.30;99.90;;;;;;5065982;28;20049;-80
2022/07/14 07:57:37;;;;;;;3.75;0.93;;;19.40;99.90;;;;;;5042585;28;20056;-76
2022/07/14 08:00:05;;;;;;;7.47;1.08;;;19.50;99.90;;;;;;5034902;28;20049;-78
2022/07/14 08:02:31;;;;;;;4.00;0.98;;;19.70;99.90;;;;;;5038539;28;20504;-78
2022/07/14 08:04:57;;;;;;;5.57;0.82;;;19.70;99.90;;;;;;5090603;28;20135;-76
2022/07/14 08:07:22;;;;;;;4.65;0.90;;;20.00;99.90;;;;;;5087188;28;20491;-78
2022/07/14 08:09:48;;;;;;;5.55;0.70;;;20.00;99.90;;;;;;5086962;28;20040;-78
2022/07/14 08:12:14;;;;;;;6.13;1.02;;;20.10;99.90;;;;;;5084460;28;20385;-78
2022/07/14 08:14:49;;;;;;;8.23;0.85;;;20.10;99.90;;;;;;5045385;28;20041;-78
2022/07/14 08:17:16;;;;;;;9.40;0.85;;;20.00;99.90;;;;;;5036965;28;20083;-78
2022/07/14 08:19:42;;;;;;;3.65;0.90;;;20.10;99.90;;;;;;5038277;28;20049;-78
2022/07/14 08:22:08;;;;;;;5.97;1.05;;;20.20;99.90;;;;;;5051248;28;21986;-76
2022/07/14 08:24:34;;;;;;;2.60;0.70;;;20.20;99.90;;;;;;5047988;28;20041;-78
2022/07/14 08:27:00;;;;;;;6.10;0.98;;;20.30;99.90;;;;;;5065506;28;20090;-76
2022/07/14 08:29:25;;;;;;;4.60;0.80;;;20.20;99.90;;;;;;5034505;28;20052;-76
2022/07/14 08:31:51;;;;;;;3.90;0.80;;;20.30;99.90;;;;;;5051519;28;20048;-78
2022/07/14 08:34:17;;;;;;;8.82;0.90;;;20.30;99.90;;;;;;5068619;28;20471;-78
2022/07/14 08:36:42;;;;;;;9.50;1.08;;;20.30;99.90;;;;;;5048829;28;20040;-78
2022/07/14 08:39:08;;;;;;;3.45;0.90;;;20.30;99.90;;;;;;5065853;28;20043;-78
2022/07/14 08:41:38;;;;;;;2.30;0.70;;;20.30;99.90;;;;;;5048544;28;20327;-77
2022/07/14 08:44:04;;;;;;;10.50;1.50;;;20.20;99.90;;;;;;5019534;28;20048;-77
2022/07/14 08:46:36;;;;;;;3.67;0.90;;;20.30;99.90;;;;;;5068741;28;20048;-78
2022/07/14 08:49:02;;;;;;;4.65;0.90;;;20.20;99.90;;;;;;5068459;28;20048;-78
2022/07/14 08:51:28;;;;;;;5.90;0.80;;;20.30;99.90;;;;;;5057299;28;20048;-76
2022/07/14 08:53:54;;;;;;;4.78;0.90;;;20.10;99.90;;;;;;5073910;28;20202;-77
2022/07/14 08:56:20;;;;;;;5.07;0.85;;;20.20;99.90;;;;;;5064812;28;20266;-77
2022/07/14 08:58:47;;;;;;;4.68;1.00;;;20.10;99.90;;;;;;5070296;28;20083;-77
2022/07/14 09:01:13;;;;;;;3.35;0.82;;;20.00;99.90;;;;;;5068854;28;20458;-76
2022/07/14 09:03:39;;;;;;;3.08;0.98;;;20.20;99.90;;;;;;5030039;28;20170;-77
2022/07/14 09:06:05;;;;;;;4.65;0.90;;;20.30;99.90;;;;;;5071417;28;20049;-78
2022/07/14 09:08:53;;;;;;;7.10;0.90;;;20.50;99.90;;;;;;5087288;28;20379;-78
2022/07/14 09:11:19;;;;;;;7.60;1.05;;;20.80;99.90;;;;;;5080152;28;20048;-76
2022/07/14 09:13:44;;;;;;;3.22;0.80;;;20.70;99.90;;;;;;5082203;28;20471;-77
2022/07/14 09:16:36;;;;;;;4.72;0.93;;;20.80;99.90;;;;;;5070492;28;20048;-77
2022/07/14 09:19:11;;;;;;;2.28;0.60;;;20.60;99.90;;;;;;5049013;28;20211;-78
2022/07/14 09:21:38;;;;;;;3.22;0.63;;;20.50;99.90;;;;;;5070430;28;20102;-77
2022/07/14 09:24:10;;;;;;;5.70;0.73;;;20.20;99.90;;;;;;5101053;28;20522;-78
2022/07/14 09:26:52;;;;;;;3.67;0.80;;;20.30;99.90;;;;;;5068551;28;20142;-77
2022/07/14 09:29:26;;;;;;;3.50;0.73;;;20.50;99.90;;;;;;5059788;28;20371;-78
2022/07/14 09:31:52;;;;;;;8.15;1.13;;;20.40;99.90;;;;;;5089025;28;20511;-79
2022/07/14 09:34:27;;;;;;;6.25;0.90;;;20.30;99.90;;;;;;5096879;28;20135;-77
2022/07/14 09:37:09;;;;;;;4.28;0.80;;;20.50;99.90;;;;;;5091772;28;20135;-79
2022/07/14 09:39:35;;;;;;;4.28;0.70;;;20.50;99.90;;;;;;5048459;28;20049;-77
2022/07/14 09:42:02;;;;;;;3.20;1.05;;;20.70;99.90;;;;;;5072610;28;20055;-79
2022/07/14 09:44:29;;;;;;;5.47;1.10;;;21.00;99.90;;;;;;5056981;28;20037;-79
2022/07/14 09:46:56;;;;;;;1.65;0.52;;;21.10;99.90;;;;;;5072251;28;20163;-79
2022/07/14 09:49:24;;;;;;;3.35;0.90;;;21.30;99.90;;;;;;5072316;28;20123;-78
2022/07/14 09:51:57;;;;;;;2.78;0.80;;;21.80;99.90;;;;;;5077848;28;20118;-79
2022/07/14 09:54:39;;;;;;;5.57;0.93;;;21.90;99.90;;;;;;5097794;28;20510;-76
2022/07/14 09:57:18;;;;;;;5.00;0.90;;;22.00;99.90;;;;;;5091428;28;20045;-79
2022/07/14 09:59:58;;;;;;;3.78;0.68;;;21.80;99.90;;;;;;5095333;28;20093;-79
2022/07/14 10:02:29;;;;;;;7.05;1.10;;;21.50;99.90;;;;;;5075522;28;20514;-76
2022/07/14 10:05:04;;;;;;;5.20;0.70;;;21.70;99.90;;;;;;5077995;28;20499;-75
2022/07/14 10:07:38;;;;;;;6.32;0.90;;;21.70;99.90;;;;;;5067507;28;20145;-76
2022/07/14 10:10:09;;;;;;;5.65;0.70;;;21.60;99.90;;;;;;5065385;28;20052;-74
2022/07/14 10:12:37;;;;;;;4.18;0.90;;;21.50;99.90;;;;;;5048956;28;20060;-75
2022/07/14 10:15:08;;;;;;;9.88;0.98;;;21.70;99.90;;;;;;5087010;28;20047;-75
2022/07/14 10:17:35;;;;;;;4.70;0.98;;;22.00;99.90;;;;;;5035322;28;20064;-76
2022/07/14 10:20:03;;;;;;;4.18;0.88;;;21.90;99.90;;;;;;5046152;28;20048;-76
2022/07/14 10:22:29;;;;;;;3.08;1.02;;;21.90;99.90;;;;;;5050188;28;20054;-76
2022/07/14 10:24:56;;;;;;;4.85;0.85;;;21.60;99.90;;;;;;5051132;28;20048;-79
2022/07/14 10:27:22;;;;;;;8.10;1.00;;;21.60;99.90;;;;;;5053967;28;20045;-75
2022/07/14 10:29:53;;;;;;;2.42;0.70;;;21.60;99.90;;;;;;5047312;28;20056;-76
2022/07/14 10:32:37;;;;;;;2.45;0.60;;;21.60;99.90;;;;;;5046923;28;20043;-75
2022/07/14 10:35:35;;;;;;;3.45;0.95;;;21.80;99.90;;;;;;5081968;28;20127;-78
2022/07/14 10:38:25;;;;;;;3.75;0.90;;;22.00;99.90;;;;;;5039234;28;20132;-74
2022/07/14 10:41:17;;;;;;;3.70;0.93;;;21.90;99.90;;;;;;5047257;28;20045;-75
2022/07/14 10:43:49;;;;;;;5.25;0.90;;;21.90;99.90;;;;;;5025918;28;20486;-74
2022/07/14 10:46:36;;;;;;;3.08;0.80;;;21.60;99.90;;;;;;5078198;28;20045;-75
2022/07/14 10:49:06;;;;;;;4.40;1.10;;;21.50;99.90;;;;;;5057091;28;20049;-74
2022/07/14 10:51:32;;;;;;;4.38;0.80;;;21.40;99.90;;;;;;5044558;28;20045;-75
2022/07/14 10:53:59;;;;;;;3.70;0.75;;;21.30;99.90;;;;;;5084988;28;20496;-74
2022/07/14 10:56:26;;;;;;;6.75;0.98;;;21.10;99.90;;;;;;5022772;28;20569;-75
2022/07/14 10:59:27;;;;;;;2.97;0.80;;;20.90;99.90;;;;;;5047301;28;20899;-75
2022/07/14 11:02:12;;;;;;;2.92;0.90;;;20.80;99.90;;;;;;5045722;28;20064;-75
2022/07/14 11:05:12;;;;;;;4.47;0.95;;;21.00;99.90;;;;;;5048797;28;20048;-74
2022/07/14 11:07:47;;;;;;;4.85;0.82;;;21.10;99.90;;;;;;5028625;28;20118;-74
2022/07/14 11:10:19;;;;;;;;;;;21.00;99.90;;;;;;5059261;28;20059;-76
2022/07/14 11:13:03;;;;;;;3.22;0.90;;;20.90;99.90;;;;;;5035066;28;19928;-77
2022/07/14 11:15:46;;;;;;;3.10;0.80;;;21.00;99.90;;;;;;5061995;28;20491;-75
2022/07/14 11:18:17;;;;;;;3.30;0.80;;;21.10;99.90;;;;;;5062767;28;20072;-76
2022/07/14 11:20:46;;;;;;;2.38;0.80;;;21.00;99.90;;;;;;5079669;28;20503;-76
2022/07/14 11:23:21;;;;;;;3.42;0.63;;;20.70;99.90;;;;;;5048102;28;20480;-75
2022/07/14 11:25:48;;;;;;;3.58;0.77;;;20.90;99.90;;;;;;5045893;28;20174;-75
2022/07/14 11:28:31;;;;;;;2.70;0.75;;;20.90;99.90;;;;;;5060286;28;20522;-77
2022/07/14 11:31:14;;;;;;;2.90;0.70;;;21.20;99.90;;;;;;5018940;28;20052;-76
2022/07/14 11:36:30;;;;;;;5.43;0.75;;;21.60;99.90;;;;;;5058210;28;20503;-76
2022/07/14 11:39:15;;;;;;;6.90;1.02;;;21.90;99.90;;;;;;5030376;28;20044;-75
2022/07/14 11:41:45;;;;;;;4.10;0.90;;;22.10;99.90;;;;;;5061407;28;20052;-75
2022/07/14 11:44:33;;;;;;;4.82;0.90;;;22.50;99.90;;;;;;5046703;28;20403;-77
2022/07/14 11:47:00;;;;;;;4.63;0.80;;;23.30;99.90;;;;;;5072515;28;20190;-74
2022/07/14 11:49:26;;;;;;;2.58;0.80;;;23.40;99.90;;;;;;5058024;28;20048;-77
2022/07/14 11:51:56;;;;;;;3.22;1.02;;;23.10;99.90;;;;;;5046041;28;20043;-78
2022/07/14 11:54:22;;;;;;;4.25;0.93;;;23.20;99.90;;;;;;5073989;28;20614;-78
2022/07/14 11:56:49;;;;;;;5.53;0.85;;;22.80;99.90;;;;;;5062107;28;20052;-77
2022/07/14 11:59:23;;;;;;;4.15;0.90;;;22.70;99.90;;;;;;5046760;28;20048;-74
2022/07/14 12:01:48;;;;;;;5.07;0.95;;;22.50;99.90;;;;;;5052457;28;20053;-74
2022/07/14 12:04:17;;;;;;;4.40;0.90;;;22.50;99.90;;;;;;5045046;28;20135;-78
2022/07/14 12:06:45;;;;;;;4.70;1.08;;;22.40;99.90;;;;;;5051961;28;20040;-76
2022/07/14 12:09:12;;;;;;;9.63;1.13;;;22.50;99.90;;;;;;5047314;28;20053;-75
2022/07/14 12:11:49;;;;;;;4.20;0.88;;;22.30;99.90;;;;;;5045768;28;20102;-75
2022/07/14 12:14:16;;;;;;;5.18;1.10;;;22.60;99.90;;;;;;5068436;28;20043;-78
2022/07/14 12:16:43;;;;;;;5.22;1.10;;;22.50;99.90;;;;;;5069730;28;20119;-74
2022/07/14 12:19:10;;;;;;;6.50;0.90;;;22.20;99.90;;;;;;5053165;28;20467;-77
2022/07/14 12:21:36;;;;;;;3.70;1.02;;;22.10;99.90;;;;;;5080008;28;20075;-76
2022/07/14 12:24:03;;;;;;;4.30;0.75;;;22.00;99.90;;;;;;5092297;28;20051;-78
2022/07/14 12:26:29;;;;;;;3.33;0.90;;;21.80;99.90;;;;;;5050538;28;20091;-76
2022/07/14 12:28:58;;;;;;;8.50;1.27;;;21.90;99.90;;;;;;5026529;28;20132;-76
2022/07/14 12:31:25;;;;;;;8.55;0.93;;;21.50;99.90;;;;;;5042476;28;20097;-76
2022/07/14 12:33:53;;;;;;;5.15;1.20;;;21.50;99.90;;;;;;5054767;28;20056;-75
2022/07/14 12:36:22;;;;;;;6.10;0.90;;;21.90;99.90;;;;;;5059831;28;20408;-75
2022/07/14 12:38:49;;;;;;;4.20;1.23;;;22.30;99.90;;;;;;5053388;28;20076;-76
2022/07/14 12:41:19;;;;;;;3.22;0.70;;;22.00;99.90;;;;;;5037642;28;20076;-76
2022/07/14 12:43:47;;;;;;;4.57;0.80;;;21.60;99.90;;;;;;5053556;28;20056;-76
2022/07/14 12:46:16;;;;;;;3.97;0.80;;;21.50;99.90;;;;;;5038203;28;20045;-76
2022/07/14 12:48:48;;;;;;;3.25;0.88;;;21.30;99.90;;;;;;5041979;28;20052;-76
2022/07/14 12:51:20;;;;;;;5.15;1.10;;;21.00;99.90;;;;;;5085562;28;20073;-75
2022/07/14 12:53:56;;;;;;;8.07;0.88;;;21.00;99.90;;;;;;5085770;28;20056;-76
2022/07/14 12:56:22;;;;;;;5.60;0.90;;;21.10;99.90;;;;;;5068426;28;20425;-75
2022/07/14 12:58:48;;;;;;;4.68;1.10;;;21.20;99.90;;;;;;5054471;28;20053;-75
2022/07/14 13:01:14;;;;;;;2.67;0.77;;;21.30;99.90;;;;;;5083280;28;20113;-76
2022/07/14 13:03:39;;;;;;;8.18;1.00;;;21.40;99.90;;;;;;5055362;28;20408;-75
2022/07/14 13:06:05;;;;;;;3.40;0.90;;;22.30;99.90;;;;;;5089162;28;20237;-74
2022/07/14 13:08:39;;;;;;;2.30;0.65;;;22.90;99.90;;;;;;5061244;28;20071;-75